Time;durP1;ratioP1;P1;durP2;ratioP2;P2;SDS_P1;SDS_P2;PMS_P1;PMS_P2;Temp;Humidity;BMP_temperature;BMP_pressure;BME280_temperature;BME280_humidity;BME280_pressure;Samples;Min_cycle;Max_cycle;Signal;HPM_P1;HPM_P2
2022/06/19 00:02:03;;;;;;;6.42;5.75;;;24.50;99.90;;;;;;1922115;73;21490;-87
2022/06/19 00:04:56;;;;;;;7.40;6.00;;;24.40;99.90;;;;;;1938588;73;21046;-87
2022/06/19 00:07:47;;;;;;;8.25;5.45;;;24.40;99.90;;;;;;1917898;75;21121;-87
2022/06/19 00:10:39;;;;;;;8.35;5.85;;;24.40;99.90;;;;;;1893664;75;21098;-87
2022/06/19 00:13:30;;;;;;;7.80;5.65;;;24.40;99.90;;;;;;1917739;75;21094;-87
2022/06/19 00:16:22;;;;;;;7.62;5.85;;;24.40;99.90;;;;;;1917738;75;21044;-87
2022/06/19 00:19:14;;;;;;;8.05;5.85;;;24.30;99.90;;;;;;1917801;73;21115;-87
2022/06/19 00:22:06;;;;;;;7.10;6.05;;;24.30;99.90;;;;;;1912654;73;21097;-87
2022/06/19 00:24:58;;;;;;;8.75;5.95;;;24.30;99.90;;;;;;1925595;73;21153;-87
2022/06/19 00:27:49;;;;;;;9.30;6.00;;;24.30;99.90;;;;;;1925295;73;21095;-87
2022/06/19 00:30:42;;;;;;;8.68;5.65;;;24.40;99.90;;;;;;1928891;73;21121;-87
2022/06/19 00:33:33;;;;;;;8.68;5.90;;;24.50;99.90;;;;;;1926316;73;21055;-86
2022/06/19 00:36:26;;;;;;;7.65;5.65;;;24.50;99.90;;;;;;1924260;73;21123;-87
2022/06/19 00:39:19;;;;;;;8.38;5.95;;;24.50;99.90;;;;;;1936034;73;21108;-87
2022/06/19 00:42:12;;;;;;;9.05;6.75;;;24.50;99.90;;;;;;1939932;73;21174;-87
2022/06/19 00:45:06;;;;;;;8.85;6.03;;;24.50;99.90;;;;;;1931479;73;21124;-87
2022/06/19 00:47:59;;;;;;;8.88;6.05;;;24.50;99.90;;;;;;1926192;73;21055;-87
2022/06/19 00:50:52;;;;;;;10.55;6.12;;;24.60;99.90;;;;;;1922157;73;21523;-87
2022/06/19 00:53:47;;;;;;;8.10;6.10;;;24.50;99.90;;;;;;1943601;73;21126;-87
2022/06/19 00:56:39;;;;;;;8.28;6.17;;;24.50;99.90;;;;;;1929527;73;21063;-87
2022/06/19 01:02:12;;;;;;;9.50;5.70;;;24.60;99.90;;;;;;1943159;72;22165;-86
2022/06/19 01:05:25;;;;;;;9.38;6.40;;;24.60;99.90;;;;;;1886107;75;21143;-86
2022/06/19 01:08:36;;;;;;;9.45;6.47;;;24.70;99.90;;;;;;1874313;75;21080;-86
2022/06/19 01:11:29;;;;;;;9.25;6.15;;;24.80;99.90;;;;;;1893430;75;21047;-82
2022/06/19 01:14:40;;;;;;;6.55;5.80;;;24.70;99.90;;;;;;1887854;75;21040;-82
2022/06/19 01:17:34;;;;;;;8.70;6.17;;;24.80;99.90;;;;;;1879429;75;21081;-82
2022/06/19 01:20:27;;;;;;;8.70;5.90;;;24.80;99.90;;;;;;1886886;75;21196;-83
2022/06/19 01:23:22;;;;;;;9.18;6.25;;;24.70;99.90;;;;;;1889337;75;21039;-83
2022/06/19 01:26:15;;;;;;;8.48;6.22;;;24.60;99.90;;;;;;1887175;75;21145;-82
2022/06/19 01:29:07;;;;;;;8.10;6.12;;;24.50;99.90;;;;;;1876230;75;21096;-82
2022/06/19 01:32:00;;;;;;;8.15;6.70;;;24.40;99.90;;;;;;1885257;75;21184;-83
2022/06/19 01:37:31;;;;;;;9.18;6.20;;;24.20;99.90;;;;;;1949200;72;22310;-83
2022/06/19 01:40:44;;;;;;;9.18;6.45;;;24.20;99.90;;;;;;1908335;74;21095;-82
2022/06/19 01:43:54;;;;;;;11.22;6.17;;;24.20;99.90;;;;;;1913054;75;21120;-82
2022/06/19 01:46:45;;;;;;;8.95;6.05;;;24.20;99.90;;;;;;1920426;74;21042;-83
2022/06/19 01:49:58;;;;;;;8.10;6.15;;;24.20;99.90;;;;;;1898152;75;21041;-84
2022/06/19 01:52:52;;;;;;;9.13;6.05;;;24.20;99.90;;;;;;1918601;74;21163;-83
2022/06/19 01:55:43;;;;;;;11.70;6.30;;;24.20;99.90;;;;;;1920569;74;21118;-83
2022/06/19 01:58:36;;;;;;;7.33;6.40;;;24.10;99.90;;;;;;1886792;74;21049;-83
2022/06/19 02:01:29;;;;;;;10.95;6.90;;;24.20;99.90;;;;;;1891137;75;21152;-83
2022/06/19 02:04:21;;;;;;;10.05;6.08;;;24.20;99.90;;;;;;1922706;74;21127;-87
2022/06/19 02:07:16;;;;;;;8.95;6.30;;;24.10;99.90;;;;;;1919235;74;21117;-86
2022/06/19 02:10:09;;;;;;;9.15;6.62;;;24.10;99.90;;;;;;1918959;74;21161;-86
2022/06/19 02:13:02;;;;;;;11.28;6.75;;;24.10;99.90;;;;;;1918928;74;21158;-86
2022/06/19 02:15:55;;;;;;;9.23;7.35;;;24.10;99.90;;;;;;1899613;74;21059;-86
2022/06/19 02:21:38;;;;;;;10.53;7.03;;;24.10;99.90;;;;;;1944492;72;22302;-86
2022/06/19 02:24:47;;;;;;;8.43;6.78;;;24.10;99.90;;;;;;1833095;77;21142;-86
2022/06/19 02:27:57;;;;;;;10.78;6.87;;;24.10;99.90;;;;;;1873057;75;21074;-87
2022/06/19 02:30:49;;;;;;;7.60;6.42;;;24.00;99.90;;;;;;1878852;75;21541;-86
2022/06/19 02:34:02;;;;;;;13.15;7.05;;;23.90;99.90;;;;;;1866661;75;21177;-86
2022/06/19 02:39:38;;;;;;;7.72;6.87;;;23.90;99.90;;;;;;1934698;72;22182;-86
2022/06/19 02:42:50;;;;;;;7.92;6.40;;;23.90;99.90;;;;;;1882868;75;21472;-86
2022/06/19 02:46:01;;;;;;;8.48;7.03;;;23.90;99.90;;;;;;1893723;75;21490;-86
2022/06/19 02:48:53;;;;;;;9.18;6.45;;;23.90;99.90;;;;;;1883731;75;21063;-86
2022/06/19 02:52:03;;;;;;;8.53;6.40;;;23.90;99.90;;;;;;1873245;75;21108;-86
2022/06/19 02:54:56;;;;;;;8.93;6.78;;;23.80;99.90;;;;;;1873249;75;21055;-86
2022/06/19 02:57:47;;;;;;;10.58;7.20;;;23.90;99.90;;;;;;1871011;75;21589;-86
2022/06/19 03:00:39;;;;;;;11.28;7.60;;;23.90;99.90;;;;;;1873173;75;21055;-86
2022/06/19 03:03:35;;;;;;;9.88;8.83;;;23.90;99.90;;;;;;1880341;75;21125;-86
2022/06/19 03:06:27;;;;;;;12.20;8.53;;;23.90;99.90;;;;;;1878849;75;21116;-86
2022/06/19 03:09:19;;;;;;;10.80;8.05;;;24.00;99.90;;;;;;1873441;75;21105;-86
2022/06/19 03:12:13;;;;;;;10.38;7.65;;;23.90;99.90;;;;;;1875259;75;21063;-86
2022/06/19 03:15:07;;;;;;;10.90;7.55;;;23.90;99.90;;;;;;1890924;75;21060;-86
2022/06/19 03:17:59;;;;;;;9.48;7.55;;;23.80;99.90;;;;;;1876430;75;21055;-86
2022/06/19 03:20:51;;;;;;;9.48;8.08;;;23.70;99.90;;;;;;1892285;75;21113;-85
2022/06/19 03:23:42;;;;;;;11.25;8.08;;;23.80;99.90;;;;;;1875487;75;21067;-86
2022/06/19 03:29:15;;;;;;;10.35;6.92;;;23.80;99.90;;;;;;1972306;72;22082;-86
2022/06/19 03:32:24;;;;;;;7.78;5.95;;;23.80;99.90;;;;;;1905248;74;22280;-86
2022/06/19 03:35:34;;;;;;;6.87;6.20;;;23.80;99.90;;;;;;1919417;74;21117;-86
2022/06/19 03:38:25;;;;;;;9.70;6.33;;;23.80;99.90;;;;;;1905119;75;21116;-86
2022/06/19 03:41:35;;;;;;;8.88;5.90;;;23.70;99.90;;;;;;1915774;74;21075;-86
2022/06/19 03:44:27;;;;;;;9.88;6.08;;;23.70;99.90;;;;;;1905184;74;21200;-86
2022/06/19 03:49:58;;;;;;;8.00;6.60;;;23.60;99.90;;;;;;1952837;72;22274;-86
2022/06/19 03:53:08;;;;;;;10.43;6.50;;;23.60;99.90;;;;;;1904649;75;21109;-86
2022/06/19 03:56:20;;;;;;;7.83;6.42;;;23.60;99.90;;;;;;1896457;75;21159;-87
2022/06/19 03:59:13;;;;;;;9.08;5.70;;;23.50;99.90;;;;;;1909597;74;21044;-87
2022/06/19 04:02:23;;;;;;;10.85;6.37;;;23.60;99.90;;;;;;1889734;75;21067;-86
2022/06/19 04:07:57;;;;;;;7.03;6.03;;;23.40;99.90;;;;;;1946049;72;22067;-86
2022/06/19 04:11:08;;;;;;;11.95;5.85;;;23.30;99.90;;;;;;1890300;75;21051;-86
2022/06/19 04:14:18;;;;;;;8.08;6.42;;;23.40;99.90;;;;;;1893626;75;21039;-86
2022/06/19 04:19:57;;;;;;;11.08;5.62;;;23.30;99.90;;;;;;1946214;72;22743;-86
2022/06/19 04:23:09;;;;;;;7.08;5.72;;;23.30;99.90;;;;;;1930626;73;21067;-87
2022/06/19 04:26:19;;;;;;;7.53;5.70;;;23.30;99.90;;;;;;1925488;73;21047;-87
2022/06/19 04:29:13;;;;;;;9.38;6.70;;;23.40;99.90;;;;;;1917541;73;21184;-87
2022/06/19 04:35:03;;;;;;;7.60;6.47;;;23.60;99.90;;;;;;1943121;72;22224;-86
2022/06/19 04:38:13;;;;;;;11.75;8.35;;;23.60;99.90;;;;;;1918243;74;21074;-86
2022/06/19 04:41:26;;;;;;;11.48;9.78;;;23.60;99.90;;;;;;1914444;74;21102;-86
2022/06/19 04:44:20;;;;;;;14.13;9.85;;;23.60;99.90;;;;;;1904984;75;21113;-86
2022/06/19 04:47:30;;;;;;;12.20;10.35;;;23.70;99.90;;;;;;1912145;74;21163;-86
2022/06/19 04:50:21;;;;;;;11.63;9.65;;;23.70;99.90;;;;;;1909319;74;21191;-86
2022/06/19 04:53:13;;;;;;;11.97;10.20;;;23.80;99.90;;;;;;1905202;75;21350;-86
2022/06/19 04:56:05;;;;;;;12.13;9.78;;;23.80;99.90;;;;;;1905086;74;21088;-86
2022/06/19 04:58:56;;;;;;;11.88;9.85;;;23.80;99.90;;;;;;1905195;74;21569;-86
2022/06/19 05:01:48;;;;;;;11.10;9.60;;;23.80;99.90;;;;;;1905623;74;21052;-86
2022/06/19 05:04:40;;;;;;;8.63;7.25;;;23.80;99.90;;;;;;1914057;74;21062;-86
2022/06/19 05:07:31;;;;;;;9.20;7.05;;;23.60;99.90;;;;;;1913868;74;21059;-86
2022/06/19 05:10:23;;;;;;;9.98;6.50;;;23.60;99.90;;;;;;1919381;74;21056;-86
2022/06/19 05:13:17;;;;;;;8.33;6.30;;;23.60;99.90;;;;;;1905256;74;21139;-87
2022/06/19 05:16:10;;;;;;;9.90;6.70;;;23.60;99.90;;;;;;1904051;74;21154;-86
2022/06/19 05:19:03;;;;;;;8.88;6.55;;;23.70;99.90;;;;;;1916757;74;21115;-86
2022/06/19 05:21:54;;;;;;;11.18;8.93;;;23.80;99.90;;;;;;1914976;74;21110;-86
2022/06/19 05:24:46;;;;;;;10.93;9.60;;;23.90;99.90;;;;;;1905312;74;21079;-86
2022/06/19 05:27:38;;;;;;;15.83;9.98;;;24.00;99.90;;;;;;1908106;74;21059;-87
2022/06/19 05:30:30;;;;;;;11.78;9.10;;;24.10;99.90;;;;;;1920577;74;21050;-86
2022/06/19 05:33:21;;;;;;;12.33;9.88;;;24.10;99.90;;;;;;1910963;74;21107;-86
2022/06/19 05:36:13;;;;;;;11.83;10.00;;;24.10;99.90;;;;;;1911314;74;21109;-86
2022/06/19 05:39:06;;;;;;;17.12;10.28;;;24.20;99.90;;;;;;1914386;74;21110;-86
2022/06/19 05:41:58;;;;;;;13.75;9.95;;;24.40;99.90;;;;;;1905442;74;21051;-87
2022/06/19 05:44:49;;;;;;;13.10;10.00;;;24.50;99.90;;;;;;1917019;74;21213;-86
2022/06/19 05:47:41;;;;;;;11.88;10.63;;;24.60;99.90;;;;;;1918304;74;21191;-87
2022/06/19 05:50:32;;;;;;;8.63;7.47;;;24.70;99.90;;;;;;1905677;74;21116;-86
2022/06/19 05:53:24;;;;;;;10.00;7.05;;;24.70;99.90;;;;;;1908341;74;21051;-86
2022/06/19 05:56:17;;;;;;;10.45;5.90;;;24.50;99.90;;;;;;1904679;74;21058;-86
2022/06/19 05:59:09;;;;;;;8.65;5.72;;;24.40;99.90;;;;;;1907140;74;21040;-86
2022/06/19 06:02:00;;;;;;;7.17;5.60;;;24.30;99.90;;;;;;1925117;74;21569;-86
2022/06/19 06:04:52;;;;;;;9.83;5.83;;;24.10;99.90;;;;;;1916153;74;21059;-86
2022/06/19 06:07:43;;;;;;;8.65;5.90;;;24.20;99.90;;;;;;1914770;74;21134;-86
2022/06/19 06:13:13;;;;;;;7.22;6.10;;;24.30;99.90;;;;;;1929583;72;22288;-86
2022/06/19 06:16:23;;;;;;;7.97;7.00;;;24.40;99.90;;;;;;1890373;75;21102;-87
2022/06/19 06:22:13;;;;;;;7.40;6.70;;;24.60;99.90;;;;;;1947379;72;22091;-85
2022/06/19 06:25:24;;;;;;;11.93;7.53;;;24.80;99.90;;;;;;1892234;74;21083;-86
2022/06/19 06:28:35;;;;;;;9.70;7.10;;;24.90;99.90;;;;;;1912543;75;21050;-86
2022/06/19 06:31:28;;;;;;;11.35;7.42;;;25.10;99.90;;;;;;1916443;75;21058;-86
2022/06/19 06:34:39;;;;;;;7.08;6.08;;;25.10;99.90;;;;;;1889032;75;21063;-86
2022/06/19 06:37:31;;;;;;;8.58;5.28;;;25.10;99.90;;;;;;1898594;75;21039;-87
2022/06/19 06:40:22;;;;;;;8.53;5.33;;;25.00;99.90;;;;;;1894557;75;21133;-87
2022/06/19 06:43:14;;;;;;;8.98;5.60;;;25.10;99.90;;;;;;1892818;75;21227;-87
2022/06/19 06:46:07;;;;;;;6.92;5.33;;;25.10;99.90;;;;;;1915849;74;21168;-87
2022/06/19 06:49:02;;;;;;;8.28;5.17;;;25.10;99.90;;;;;;1892872;75;21040;-86
2022/06/19 06:51:53;;;;;;;6.90;5.42;;;25.10;99.90;;;;;;1894201;75;21059;-87
2022/06/19 06:54:45;;;;;;;8.90;5.22;;;25.10;99.90;;;;;;1902073;75;21562;-87
2022/06/19 06:57:36;;;;;;;9.80;5.17;;;25.30;99.90;;;;;;1901883;75;21171;-87
2022/06/19 07:00:28;;;;;;;9.33;5.20;;;25.50;99.90;;;;;;1891813;75;21223;-87
2022/06/19 07:03:19;;;;;;;11.22;5.75;;;25.70;99.90;;;;;;1900254;75;21043;-87
2022/06/19 07:06:12;;;;;;;8.20;5.67;;;25.90;99.90;;;;;;1884813;75;21067;-87
2022/06/19 07:11:46;;;;;;;7.17;4.95;;;26.30;99.90;;;;;;1927347;72;22249;-87
2022/06/19 07:17:36;;;;;;;7.17;4.80;;;26.50;99.90;;;;;;1942419;72;22597;-87
2022/06/19 07:20:46;;;;;;;7.55;5.55;;;26.60;99.90;;;;;;1895284;75;21083;-86
2022/06/19 07:23:55;;;;;;;8.93;5.10;;;26.70;99.90;;;;;;1889798;75;21027;-86
2022/06/19 07:26:47;;;;;;;8.90;5.35;;;26.90;99.90;;;;;;1891305;75;21103;-87
2022/06/19 07:29:57;;;;;;;9.63;5.30;;;27.00;99.90;;;;;;1895852;75;21206;-87
2022/06/19 07:32:48;;;;;;;8.10;5.10;;;27.40;99.90;;;;;;1872822;75;21096;-87
2022/06/19 07:38:18;;;;;;;12.35;5.60;;;27.70;99.90;;;;;;1969190;72;22122;-87
2022/06/19 07:41:28;;;;;;;8.05;4.87;;;28.00;99.90;;;;;;1885567;74;21079;-87
2022/06/19 07:50:49;;;;;;;11.55;5.10;;;28.60;99.90;;;;;;1843838;77;21122;-88
2022/06/19 07:53:59;;;;;;;14.13;5.20;;;28.80;99.90;;;;;;1870254;75;21039;-88
2022/06/19 07:56:50;;;;;;;9.75;4.65;;;29.10;99.90;;;;;;1874974;75;21137;-88
2022/06/19 08:00:00;;;;;;;15.23;4.90;;;29.20;99.90;;;;;;1889926;75;21090;-88
2022/06/19 08:02:54;;;;;;;12.98;5.05;;;29.50;99.90;;;;;;1881203;75;21097;-88
2022/06/19 08:08:27;;;;;;;8.78;4.72;;;29.90;99.90;;;;;;1940280;72;22197;-86
2022/06/19 08:11:37;;;;;;;15.65;4.70;;;30.10;99.90;;;;;;1892569;75;21035;-88
2022/06/19 08:14:47;;;;;;;15.18;4.58;;;30.30;99.90;;;;;;1901948;75;21027;-88
2022/06/19 08:17:38;;;;;;;14.68;5.12;;;30.70;99.90;;;;;;1887503;75;21132;-88
2022/06/19 08:20:52;;;;;;;14.23;5.22;;;30.90;98.20;;;;;;1885075;75;21046;-88
2022/06/19 08:23:44;;;;;;;18.67;5.62;;;31.20;96.10;;;;;;1902574;75;21113;-87
2022/06/19 08:29:20;;;;;;;12.43;4.75;;;31.70;91.90;;;;;;1932254;72;22380;-83
2022/06/19 08:32:35;;;;;;;18.40;5.60;;;31.80;90.60;;;;;;1898942;75;21535;-83
2022/06/19 08:36:00;;;;;;;16.52;5.87;;;32.10;87.80;;;;;;1889080;75;21167;-83
2022/06/19 08:38:55;;;;;;;15.95;5.28;;;32.20;84.70;;;;;;1879185;75;21116;-84
2022/06/19 08:42:23;;;;;;;12.33;4.78;;;32.30;82.70;;;;;;1880579;75;21053;-83
2022/06/19 08:45:41;;;;;;;18.70;5.40;;;32.40;82.20;;;;;;1880508;75;21051;-83
2022/06/19 08:49:22;;;;;;;16.97;5.35;;;32.40;80.90;;;;;;1876278;75;21063;-83
2022/06/19 08:52:22;;;;;;;15.93;7.25;;;32.50;80.10;;;;;;1891033;75;21249;-83
2022/06/19 08:55:23;;;;;;;11.90;4.47;;;32.60;77.30;;;;;;1880756;75;21136;-84
2022/06/19 09:01:00;;;;;;;15.30;4.50;;;32.90;75.50;;;;;;1947051;72;22147;-83
2022/06/19 09:08:04;;;;;;;12.80;4.83;;;33.10;72.60;;;;;;1851698;75;21533;-83
2022/06/19 09:11:02;;;;;;;18.55;5.08;;;33.10;72.40;;;;;;1906789;75;21133;-83
2022/06/19 09:14:20;;;;;;;16.93;4.67;;;33.20;70.70;;;;;;1904651;75;21121;-89
2022/06/19 09:17:15;;;;;;;12.70;4.80;;;33.30;70.30;;;;;;1908378;75;21507;-88
2022/06/19 09:20:12;;;;;;;19.92;4.75;;;33.30;68.60;;;;;;1894176;75;21156;-89
2022/06/19 09:23:16;;;;;;;17.97;4.60;;;33.40;67.80;;;;;;1894741;75;21176;-89
2022/06/19 09:26:11;;;;;;;19.05;4.95;;;33.50;67.70;;;;;;1889420;75;21193;-89
2022/06/19 09:29:11;;;;;;;13.60;4.37;;;33.60;68.10;;;;;;1856007;76;21109;-88
2022/06/19 09:32:07;;;;;;;16.80;4.83;;;33.70;65.70;;;;;;1884690;75;21141;-89
2022/06/19 09:37:49;;;;;;;14.00;4.70;;;33.60;64.20;;;;;;1943636;72;23277;-89
2022/06/19 09:41:01;;;;;;;18.10;4.42;;;33.80;64.20;;;;;;1925638;73;21084;-89
2022/06/19 09:44:16;;;;;;;15.18;4.67;;;33.80;64.90;;;;;;1918043;73;21108;-89
2022/06/19 09:47:11;;;;;;;13.38;4.47;;;33.90;62.60;;;;;;1932100;73;21098;-89
2022/06/19 09:50:24;;;;;;;17.27;4.95;;;33.90;62.70;;;;;;1924554;73;21043;-89
2022/06/19 09:53:19;;;;;;;16.90;5.08;;;34.00;62.00;;;;;;1929878;73;21141;-90
2022/06/19 09:56:15;;;;;;;14.38;4.35;;;34.10;62.40;;;;;;1917802;73;21191;-89
2022/06/19 09:59:11;;;;;;;15.72;4.53;;;34.10;61.90;;;;;;1917786;73;21116;-89
2022/06/19 10:02:06;;;;;;;15.25;4.28;;;34.20;60.70;;;;;;1924079;73;21179;-89
2022/06/19 10:05:02;;;;;;;16.32;4.40;;;34.20;60.90;;;;;;1922481;73;21101;-90
2022/06/19 10:07:56;;;;;;;20.08;4.37;;;34.20;60.40;;;;;;1917461;73;21170;-89
2022/06/19 10:13:31;;;;;;;16.30;4.90;;;34.30;59.40;;;;;;1931853;72;22162;-88
2022/06/19 10:16:46;;;;;;;19.12;4.60;;;34.40;59.90;;;;;;1906208;75;21551;-88
2022/06/19 10:22:47;;;;;;;16.85;4.58;;;34.60;58.60;;;;;;1952917;72;22238;-88
2022/06/19 10:26:11;;;;;;;15.80;4.60;;;34.60;58.20;;;;;;1931588;73;21078;-88
2022/06/19 10:29:30;;;;;;;21.05;4.95;;;34.70;58.50;;;;;;1928859;73;21064;-87
2022/06/19 10:38:19;;;;;;;18.37;4.47;;;35.00;56.90;;;;;;1951365;72;22147;-88
2022/06/19 10:48:49;;;;;;;15.63;4.45;;;35.10;56.10;;;;;;1963367;71;22233;-88
2022/06/19 10:52:10;;;;;;;14.38;4.53;;;35.20;55.90;;;;;;1922286;73;21074;-88
2022/06/19 10:55:28;;;;;;;15.00;3.98;;;35.20;55.50;;;;;;1995750;70;21134;-88
2022/06/19 10:58:22;;;;;;;9.63;4.20;;;35.30;55.90;;;;;;2020037;70;21705;-89
2022/06/19 11:07:35;;;;;;;12.85;3.92;;;35.40;55.40;;;;;;1936441;72;22086;-88
2022/06/19 11:10:49;;;;;;;9.95;4.30;;;35.40;55.10;;;;;;1909768;75;21102;-88
2022/06/19 11:14:02;;;;;;;12.43;3.72;;;35.40;54.50;;;;;;1885039;75;21094;-88
2022/06/19 11:16:59;;;;;;;9.68;3.42;;;35.40;54.60;;;;;;1884903;76;21197;-88
2022/06/19 11:23:07;;;;;;;12.37;4.00;;;35.60;54.30;;;;;;1925724;72;28487;-88
2022/06/19 11:26:19;;;;;;;13.05;4.22;;;35.60;53.50;;;;;;1905820;74;21177;-88
2022/06/19 11:29:30;;;;;;;11.15;3.95;;;35.70;53.40;;;;;;1906395;74;21146;-88
2022/06/19 11:32:24;;;;;;;12.43;3.92;;;35.70;54.00;;;;;;1905319;74;21167;-89
2022/06/19 11:35:42;;;;;;;13.58;3.90;;;35.70;54.60;;;;;;1911725;74;21100;-89
2022/06/19 11:38:38;;;;;;;12.60;3.98;;;35.70;53.20;;;;;;1905432;75;21184;-89
2022/06/19 11:41:33;;;;;;;10.93;4.03;;;35.70;53.00;;;;;;1910288;74;21129;-89
2022/06/19 11:44:25;;;;;;;10.88;3.83;;;35.80;52.80;;;;;;1905331;75;21186;-81
2022/06/19 11:47:24;;;;;;;16.90;3.87;;;35.70;52.50;;;;;;1928024;74;21123;-81
2022/06/19 11:50:20;;;;;;;8.73;3.35;;;35.80;52.50;;;;;;1912644;74;21126;-89
2022/06/19 11:53:20;;;;;;;13.05;3.60;;;35.90;52.60;;;;;;1905379;74;21116;-89
2022/06/19 11:56:31;;;;;;;13.70;4.28;;;35.90;52.10;;;;;;1905514;74;21139;-89
2022/06/19 11:59:31;;;;;;;14.28;3.65;;;36.00;51.90;;;;;;1907647;73;21052;-89
2022/06/19 12:02:28;;;;;;;12.75;4.20;;;36.10;51.70;;;;;;1912113;74;21074;-89
2022/06/19 12:05:29;;;;;;;13.93;4.50;;;36.20;51.80;;;;;;1912806;74;21040;-87
2022/06/19 12:09:13;;;;;;;15.03;4.25;;;36.20;51.50;;;;;;1873207;74;21047;-87
2022/06/19 12:16:34;;;;;;;11.35;3.47;;;36.20;51.40;;;;;;1835438;75;21047;-86
2022/06/19 12:19:29;;;;;;;11.88;3.95;;;36.30;51.30;;;;;;1905487;74;21576;-85
2022/06/19 12:22:23;;;;;;;13.15;4.40;;;36.40;50.70;;;;;;1910988;73;21278;-85
2022/06/19 12:25:18;;;;;;;12.35;4.20;;;36.50;50.80;;;;;;1920882;74;21063;-86
2022/06/19 12:28:17;;;;;;;11.53;3.72;;;36.60;50.20;;;;;;1907038;74;21055;-86
2022/06/19 12:31:12;;;;;;;14.47;4.37;;;36.50;50.10;;;;;;1909020;74;21098;-86
2022/06/19 12:34:07;;;;;;;13.68;4.47;;;36.50;51.00;;;;;;1929566;74;21169;-86
2022/06/19 12:37:01;;;;;;;9.33;4.00;;;36.80;50.80;;;;;;1913053;74;21198;-86
2022/06/19 12:39:54;;;;;;;10.35;3.72;;;36.50;51.10;;;;;;1896453;75;21133;-87
2022/06/19 12:42:48;;;;;;;15.60;4.78;;;36.60;51.20;;;;;;1907094;74;21132;-88
2022/06/19 12:45:45;;;;;;;8.85;4.15;;;36.60;51.00;;;;;;1912512;74;21402;-87
2022/06/19 12:48:42;;;;;;;9.10;4.33;;;36.60;51.20;;;;;;1923108;74;21160;-87
2022/06/19 12:51:37;;;;;;;11.70;4.42;;;36.70;51.50;;;;;;1924144;74;21082;-87
2022/06/19 12:54:55;;;;;;;9.30;4.28;;;36.80;51.80;;;;;;1926025;74;21063;-86
2022/06/19 12:57:56;;;;;;;9.23;3.85;;;36.80;51.60;;;;;;1908521;74;21254;-87
2022/06/19 13:00:50;;;;;;;9.58;4.00;;;36.80;52.20;;;;;;1904562;75;21138;-87
2022/06/19 13:04:02;;;;;;;17.17;3.90;;;36.90;51.20;;;;;;1904615;75;21157;-87
2022/06/19 13:07:29;;;;;;;15.05;4.15;;;36.90;50.90;;;;;;1904642;75;21087;-86
2022/06/19 13:10:36;;;;;;;9.60;4.15;;;37.10;51.20;;;;;;1912174;74;21092;-87
2022/06/19 13:13:47;;;;;;;8.40;4.05;;;37.10;50.80;;;;;;1904345;75;21152;-87
2022/06/19 13:16:44;;;;;;;11.18;4.50;;;37.20;51.10;;;;;;1925489;74;21054;-87
2022/06/19 13:19:45;;;;;;;14.33;4.83;;;37.20;50.70;;;;;;1904695;75;21496;-86
2022/06/19 13:22:40;;;;;;;9.25;4.40;;;37.30;51.30;;;;;;1904569;75;21155;-86
2022/06/19 13:25:35;;;;;;;11.68;4.78;;;37.50;51.20;;;;;;1904720;75;21141;-87
2022/06/19 13:28:39;;;;;;;6.33;3.95;;;37.60;50.60;;;;;;1904562;75;21043;-86
2022/06/19 13:31:36;;;;;;;13.88;5.10;;;37.50;51.30;;;;;;1904766;75;21062;-86
2022/06/19 13:34:34;;;;;;;11.77;4.60;;;37.60;51.00;;;;;;1890609;75;21217;-87
2022/06/19 13:37:34;;;;;;;15.48;4.75;;;37.80;50.50;;;;;;1930395;74;21207;-87
2022/06/19 13:40:33;;;;;;;9.80;4.70;;;37.70;50.80;;;;;;1906988;74;21507;-87
2022/06/19 13:43:34;;;;;;;11.33;5.00;;;37.90;50.60;;;;;;1904438;75;21574;-87
2022/06/19 13:46:33;;;;;;;11.45;4.55;;;38.10;51.10;;;;;;1904487;75;21100;-87
2022/06/19 13:49:30;;;;;;;12.33;5.00;;;38.40;51.00;;;;;;1911750;74;21178;-88
2022/06/19 13:55:43;;;;;;;9.30;4.40;;;38.90;50.40;;;;;;1960455;72;22082;-87
2022/06/19 13:59:23;;;;;;;11.15;4.17;;;39.20;50.70;;;;;;1905732;74;21181;-87
2022/06/19 14:03:02;;;;;;;12.43;4.37;;;39.50;49.60;;;;;;1905378;74;21555;-88
2022/06/19 14:05:54;;;;;;;7.90;4.00;;;39.70;49.30;;;;;;1905176;75;21194;-88
2022/06/19 14:09:09;;;;;;;11.10;4.47;;;40.20;49.40;;;;;;1912371;74;21118;-88
2022/06/19 14:12:07;;;;;;;11.03;4.28;;;40.40;48.40;;;;;;1926041;74;21397;-88
2022/06/19 14:15:02;;;;;;;11.18;4.22;;;40.30;48.00;;;;;;1918232;74;21496;-89
2022/06/19 14:20:37;;;;;;;10.90;4.10;;;40.50;48.30;;;;;;1952447;72;22218;-83
2022/06/19 14:23:51;;;;;;;9.73;4.75;;;40.80;48.60;;;;;;1881093;75;21684;-87
2022/06/19 14:29:54;;;;;;;8.55;3.72;;;41.10;47.00;;;;;;1932116;72;22150;-84
2022/06/19 14:33:05;;;;;;;10.40;3.92;;;41.30;46.40;;;;;;1905957;75;21531;-84
2022/06/19 14:36:28;;;;;;;12.40;3.98;;;41.60;46.20;;;;;;1885165;75;21115;-84
2022/06/19 14:42:26;;;;;;;14.58;4.37;;;41.60;44.90;;;;;;1957041;72;22060;-83
2022/06/19 14:45:39;;;;;;;9.65;3.52;;;41.70;44.50;;;;;;1917763;75;21079;-84
2022/06/19 14:48:53;;;;;;;11.68;4.40;;;41.90;44.50;;;;;;1917301;75;21163;-84
2022/06/19 14:51:47;;;;;;;13.05;4.45;;;42.30;43.80;;;;;;1941910;73;21095;-84
2022/06/19 14:55:10;;;;;;;12.05;4.55;;;42.00;44.00;;;;;;1917699;75;21058;-84
2022/06/19 14:58:05;;;;;;;13.10;4.22;;;42.00;43.60;;;;;;1917465;75;21071;-84
2022/06/19 15:00:59;;;;;;;7.45;3.87;;;42.50;43.50;;;;;;1917688;75;21055;-83
2022/06/19 15:03:57;;;;;;;9.18;4.12;;;42.70;43.50;;;;;;1881350;76;21104;-83
2022/06/19 15:06:52;;;;;;;10.18;4.45;;;42.70;43.60;;;;;;1924418;73;21055;-83
2022/06/19 15:09:47;;;;;;;11.68;3.90;;;43.00;41.90;;;;;;1945701;73;21174;-84
2022/06/19 15:12:38;;;;;;;9.13;3.92;;;42.90;42.10;;;;;;1917639;75;21113;-84
2022/06/19 15:15:31;;;;;;;10.28;4.15;;;42.80;42.20;;;;;;1917674;75;21144;-83
2022/06/19 15:18:29;;;;;;;8.75;4.00;;;43.30;41.90;;;;;;1917661;75;21036;-83
2022/06/19 15:21:30;;;;;;;9.03;3.70;;;43.50;41.40;;;;;;1917636;75;21120;-83
2022/06/19 15:24:27;;;;;;;9.50;4.08;;;43.30;41.40;;;;;;1917714;75;21048;-83
2022/06/19 15:27:28;;;;;;;13.80;3.80;;;43.50;41.50;;;;;;1917683;75;21462;-83
2022/06/19 15:30:40;;;;;;;7.42;3.83;;;43.80;41.50;;;;;;1940451;73;21106;-83
2022/06/19 15:33:47;;;;;;;15.00;4.00;;;44.10;40.50;;;;;;1899451;73;21600;-83
2022/06/19 15:36:44;;;;;;;8.10;3.50;;;43.70;40.50;;;;;;1917688;73;21110;-83
2022/06/19 15:39:41;;;;;;;8.88;4.08;;;43.80;40.10;;;;;;1923975;73;21055;-83
2022/06/19 15:42:34;;;;;;;12.82;4.17;;;44.20;40.20;;;;;;1924661;74;21087;-83
2022/06/19 15:45:33;;;;;;;10.93;3.90;;;45.20;39.70;;;;;;1927307;74;21113;-88
2022/06/19 15:48:38;;;;;;;6.85;3.67;;;44.90;39.10;;;;;;1927544;73;21069;-86
2022/06/19 15:51:33;;;;;;;10.63;4.25;;;44.40;39.60;;;;;;1865901;76;21062;-86
2022/06/19 15:54:25;;;;;;;8.78;3.87;;;44.20;39.50;;;;;;1940341;73;21050;-83
2022/06/19 15:57:22;;;;;;;9.78;4.03;;;44.30;39.70;;;;;;1916827;75;21153;-84
2022/06/19 16:00:20;;;;;;;10.60;3.92;;;44.50;39.20;;;;;;1892305;75;21127;-85
2022/06/19 16:03:19;;;;;;;11.22;4.35;;;44.50;39.20;;;;;;1926698;73;21109;-85
2022/06/19 16:06:13;;;;;;;6.12;3.87;;;44.50;39.50;;;;;;1920652;73;21137;-85
2022/06/19 16:09:07;;;;;;;11.12;4.47;;;44.50;39.00;;;;;;1916776;75;21074;-86
2022/06/19 16:12:02;;;;;;;10.63;4.03;;;44.70;39.10;;;;;;1916815;75;21047;-86
2022/06/19 16:15:10;;;;;;;9.23;3.80;;;44.80;38.50;;;;;;1917045;75;21135;-84
2022/06/19 16:18:04;;;;;;;8.13;3.72;;;44.90;38.50;;;;;;1917359;73;21053;-83
2022/06/19 16:20:58;;;;;;;8.55;4.20;;;44.90;38.50;;;;;;1916287;75;21067;-83
2022/06/19 16:23:53;;;;;;;10.87;3.87;;;44.20;38.70;;;;;;1916988;73;21157;-83
2022/06/19 16:26:45;;;;;;;7.35;3.50;;;44.20;38.80;;;;;;1919558;73;21054;-82
2022/06/19 16:29:40;;;;;;;10.10;3.98;;;44.50;38.40;;;;;;1916135;75;21162;-83
2022/06/19 16:45:31;;;;;;;11.90;3.92;;;44.90;37.30;;;;;;1895337;75;21059;-83
2022/06/19 16:48:41;;;;;;;9.75;4.40;;;44.50;37.40;;;;;;1895345;75;21172;-83
2022/06/19 16:51:34;;;;;;;9.78;3.90;;;44.50;37.50;;;;;;1895275;75;21051;-83
2022/06/19 16:54:36;;;;;;;8.53;3.80;;;44.50;37.70;;;;;;1902078;75;21098;-83
2022/06/19 16:57:29;;;;;;;10.13;3.85;;;44.10;37.40;;;;;;1903254;75;21130;-83
2022/06/19 17:00:23;;;;;;;9.63;4.25;;;44.50;37.60;;;;;;1907090;75;21613;-83
2022/06/19 17:03:25;;;;;;;8.25;3.87;;;44.50;37.30;;;;;;1889836;75;21107;-83
2022/06/19 17:09:09;;;;;;;9.33;3.95;;;44.00;37.80;;;;;;1956241;72;22107;-83
2022/06/19 17:12:22;;;;;;;8.30;3.33;;;43.60;38.10;;;;;;1917611;75;21034;-83
2022/06/19 17:15:34;;;;;;;6.53;3.58;;;43.00;38.40;;;;;;1917584;75;21078;-82
2022/06/19 17:18:27;;;;;;;9.88;3.65;;;42.50;39.00;;;;;;1925192;73;21138;-82
2022/06/19 17:21:46;;;;;;;9.95;3.33;;;42.30;39.10;;;;;;1927966;73;21121;-85
2022/06/19 17:24:48;;;;;;;12.82;3.90;;;42.20;39.00;;;;;;1940013;73;21126;-84
2022/06/19 17:31:06;;;;;;;13.45;4.33;;;41.70;39.20;;;;;;1945353;72;22194;-85